Time;durP1;ratioP1;P1;durP2;ratioP2;P2;SDS_P1;SDS_P2;PMS_P1;PMS_P2;Temp;Humidity;BMP_temperature;BMP_pressure;BME280_temperature;BME280_humidity;BME280_pressure;Samples;Min_cycle;Max_cycle;Signal;HPM_P1;HPM_P2
2021/04/27 00:02:17;;;;;;;2.08;1.88;;;0.20;99.90;;;;;;4982366;28;20397;-81
2021/04/27 00:04:43;;;;;;;1.80;1.70;;;0.20;99.90;;;;;;4982758;28;21225;-80
2021/04/27 00:07:09;;;;;;;1.80;1.70;;;0.10;99.90;;;;;;4983501;28;20472;-80
2021/04/27 00:09:34;;;;;;;2.50;1.90;;;0.10;99.90;;;;;;5025298;28;20823;-78
2021/04/27 00:12:00;;;;;;;1.88;1.77;;;0.10;99.90;;;;;;4994899;28;20409;-78
2021/04/27 00:14:26;;;;;;;1.90;1.80;;;0.10;99.90;;;;;;4996971;28;20401;-79
2021/04/27 00:16:51;;;;;;;3.60;2.05;;;0.10;99.90;;;;;;5020314;28;20413;-80
2021/04/27 00:19:17;;;;;;;1.90;1.80;;;0.10;99.90;;;;;;5019251;28;20397;-77
2021/04/27 00:21:43;;;;;;;1.70;1.60;;;0.10;99.90;;;;;;5005388;28;20420;-78
2021/04/27 00:24:08;;;;;;;4.43;1.80;;;0.10;99.90;;;;;;4989810;28;20415;-78
2021/04/27 00:26:34;;;;;;;1.77;1.67;;;0.10;99.90;;;;;;5019029;28;20428;-79
2021/04/27 00:29:00;;;;;;;1.98;1.55;;;0.10;99.90;;;;;;5004384;28;20496;-80
2021/04/27 00:31:27;;;;;;;2.10;1.87;;;0.10;99.90;;;;;;4995465;28;20417;-78
2021/04/27 00:33:56;;;;;;;1.95;1.85;;;0.10;99.90;;;;;;4986009;28;20417;-78
2021/04/27 00:36:22;;;;;;;1.52;1.42;;;0.00;99.90;;;;;;4988549;28;20406;-81
2021/04/27 00:38:48;;;;;;;1.67;1.58;;;0.00;99.90;;;;;;4961752;28;20411;-78
2021/04/27 00:41:14;;;;;;;2.30;1.87;;;-0.10;99.90;;;;;;4991102;28;20478;-80
2021/04/27 00:43:39;;;;;;;2.22;2.08;;;-0.10;99.90;;;;;;5004290;28;20489;-80
2021/04/27 00:46:05;;;;;;;1.70;1.60;;;-0.20;99.90;;;;;;4959783;28;20445;-78
2021/04/27 00:48:30;;;;;;;2.03;1.87;;;-0.30;99.90;;;;;;4978099;28;20446;-81
2021/04/27 00:50:56;;;;;;;2.43;2.10;;;-0.40;99.90;;;;;;5007727;28;20437;-79
2021/04/27 00:53:22;;;;;;;2.28;2.08;;;-0.50;99.90;;;;;;4985761;28;20409;-78
2021/04/27 00:55:48;;;;;;;2.17;1.98;;;-0.50;99.90;;;;;;4977332;28;20394;-78
2021/04/27 00:58:14;;;;;;;1.80;1.70;;;-0.40;99.90;;;;;;5004066;28;20482;-78
2021/04/27 01:00:40;;;;;;;2.13;1.90;;;-0.40;99.90;;;;;;4981446;28;20410;-78
2021/04/27 01:03:06;;;;;;;2.05;1.90;;;-0.40;99.90;;;;;;5011535;28;20484;-80
2021/04/27 01:05:32;;;;;;;1.80;1.70;;;-0.50;99.90;;;;;;5005027;28;20785;-78
2021/04/27 01:08:04;;;;;;;1.70;1.60;;;-0.50;99.90;;;;;;4990257;28;20484;-78
2021/04/27 01:10:39;;;;;;;2.27;2.10;;;-0.70;99.90;;;;;;4998089;28;20403;-80
2021/04/27 01:13:07;;;;;;;1.83;1.70;;;-0.70;99.90;;;;;;5009015;28;20414;-78
2021/04/27 01:15:33;;;;;;;1.80;1.70;;;-0.70;99.90;;;;;;4972869;28;20407;-78
2021/04/27 01:17:59;;;;;;;2.00;1.90;;;-0.70;99.90;;;;;;4980737;28;20401;-77
2021/04/27 01:20:40;;;;;;;2.72;2.03;;;-0.80;99.90;;;;;;5008764;28;20402;-80
2021/04/27 01:23:13;;;;;;;2.15;1.95;;;-0.80;99.90;;;;;;4992390;28;20407;-80
2021/04/27 01:25:55;;;;;;;2.75;1.88;;;-0.80;99.90;;;;;;4995698;28;20827;-78
2021/04/27 01:28:21;;;;;;;2.60;2.13;;;-0.80;99.90;;;;;;4983230;28;20410;-77
2021/04/27 01:30:47;;;;;;;2.13;1.92;;;-0.80;99.90;;;;;;4988413;28;20411;-80
2021/04/27 01:33:18;;;;;;;2.05;1.85;;;-0.80;99.90;;;;;;4997994;28;20399;-78
2021/04/27 01:35:45;;;;;;;1.80;1.70;;;-0.80;99.90;;;;;;5012433;28;20495;-78
2021/04/27 01:38:12;;;;;;;2.33;2.13;;;-0.80;99.90;;;;;;4992166;28;20948;-78
2021/04/27 01:40:38;;;;;;;2.95;2.00;;;-0.80;99.90;;;;;;4983568;28;20401;-78
2021/04/27 01:43:05;;;;;;;2.80;2.00;;;-0.80;99.90;;;;;;4989384;28;20422;-77
2021/04/27 01:45:31;;;;;;;1.67;1.58;;;-0.90;99.90;;;;;;4977582;28;20404;-77
2021/04/27 01:47:59;;;;;;;2.05;1.85;;;-0.90;99.90;;;;;;5002605;28;20453;-81
2021/04/27 01:50:25;;;;;;;2.50;1.98;;;-0.80;99.90;;;;;;4971654;28;20497;-80
2021/04/27 01:53:12;;;;;;;2.33;2.13;;;-0.90;99.90;;;;;;5003602;28;20399;-80
2021/04/27 01:55:38;;;;;;;2.63;2.00;;;-1.00;99.90;;;;;;4991708;28;20418;-77
2021/04/27 01:58:04;;;;;;;1.90;1.80;;;-1.00;99.90;;;;;;4974756;28;20399;-80
2021/04/27 02:00:30;;;;;;;2.22;2.03;;;-1.00;99.90;;;;;;4987691;28;20391;-78
2021/04/27 02:02:56;;;;;;;4.57;2.40;;;-1.00;99.90;;;;;;4992741;28;20514;-80
2021/04/27 02:05:41;;;;;;;3.40;2.30;;;-1.00;99.90;;;;;;5006569;28;20406;-77
2021/04/27 02:08:23;;;;;;;2.78;2.13;;;-1.10;99.90;;;;;;4974853;28;20466;-77
2021/04/27 02:10:52;;;;;;;1.90;1.80;;;-1.20;99.90;;;;;;5004493;28;20458;-78
2021/04/27 02:13:18;;;;;;;1.92;1.83;;;-1.30;99.90;;;;;;4999659;28;20395;-79
2021/04/27 02:15:51;;;;;;;2.42;2.17;;;-1.30;99.90;;;;;;4961843;28;20411;-79
2021/04/27 02:18:17;;;;;;;1.90;1.80;;;-1.30;99.90;;;;;;4986034;28;20433;-79
2021/04/27 02:20:43;;;;;;;2.10;1.90;;;-1.30;99.90;;;;;;5006984;28;20446;-77
2021/04/27 02:23:41;;;;;;;2.47;2.20;;;-1.30;99.90;;;;;;4983814;28;20417;-77
2021/04/27 02:26:15;;;;;;;2.20;2.00;;;-1.40;99.90;;;;;;5006453;28;20415;-77
2021/04/27 02:28:45;;;;;;;2.28;2.03;;;-1.40;99.90;;;;;;4979229;28;20774;-77
2021/04/27 02:31:11;;;;;;;3.40;2.15;;;-1.40;99.90;;;;;;4988576;28;21115;-78
2021/04/27 02:33:39;;;;;;;2.30;2.10;;;-1.40;99.90;;;;;;4997908;28;20399;-77
2021/04/27 02:36:06;;;;;;;2.17;1.98;;;-1.40;99.90;;;;;;4973792;28;20465;-78
2021/04/27 02:38:50;;;;;;;2.55;2.33;;;-1.40;99.90;;;;;;5004959;28;20419;-77
2021/04/27 02:41:15;;;;;;;2.47;2.15;;;-1.40;99.90;;;;;;4998041;28;20414;-77
2021/04/27 02:43:41;;;;;;;3.70;2.20;;;-1.50;99.90;;;;;;4953842;28;20417;-78
2021/04/27 02:46:07;;;;;;;2.22;2.03;;;-1.50;99.90;;;;;;4987177;28;21087;-77
2021/04/27 02:48:45;;;;;;;2.65;2.45;;;-1.50;99.90;;;;;;4966485;28;20414;-78
2021/04/27 02:51:13;;;;;;;3.88;2.28;;;-1.40;99.90;;;;;;4989071;28;20486;-77
2021/04/27 02:53:51;;;;;;;2.53;2.20;;;-1.60;99.90;;;;;;4962793;28;21061;-77
2021/04/27 02:56:17;;;;;;;2.78;2.30;;;-1.50;99.90;;;;;;4990742;28;20406;-77
2021/04/27 02:58:47;;;;;;;2.40;2.20;;;-1.60;99.90;;;;;;4975852;28;20410;-77
2021/04/27 03:01:14;;;;;;;2.50;2.30;;;-1.60;99.90;;;;;;4950969;28;20775;-76
2021/04/27 03:03:41;;;;;;;3.08;2.42;;;-1.50;99.90;;;;;;4972438;28;20408;-77
2021/04/27 03:06:07;;;;;;;2.70;2.40;;;-1.50;99.90;;;;;;5017029;28;21130;-78
2021/04/27 03:08:37;;;;;;;2.60;2.40;;;-1.50;99.90;;;;;;4988626;28;20492;-77
2021/04/27 03:11:04;;;;;;;3.80;2.45;;;-1.50;99.90;;;;;;4971946;28;20408;-77
2021/04/27 03:13:34;;;;;;;4.18;2.65;;;-1.50;99.90;;;;;;4987004;28;20426;-77
2021/04/27 03:16:00;;;;;;;6.63;2.70;;;-1.60;99.90;;;;;;4997542;28;20406;-77
2021/04/27 03:18:25;;;;;;;2.72;2.22;;;-1.50;99.90;;;;;;4999714;28;20411;-76
2021/04/27 03:20:51;;;;;;;2.33;2.13;;;-1.50;99.90;;;;;;4972802;28;20427;-77
2021/04/27 03:23:35;;;;;;;2.63;2.42;;;-1.50;99.90;;;;;;4978770;28;20419;-77
2021/04/27 03:26:01;;;;;;;2.72;2.42;;;-1.60;99.90;;;;;;5005137;28;20744;-77
2021/04/27 03:28:46;;;;;;;2.15;2.00;;;-1.50;99.90;;;;;;5011499;28;20782;-76
2021/04/27 03:31:12;;;;;;;2.40;2.20;;;-1.60;99.90;;;;;;5005670;28;20430;-77
2021/04/27 03:33:37;;;;;;;3.17;2.40;;;-1.60;99.90;;;;;;4982778;28;20906;-77
2021/04/27 03:36:04;;;;;;;3.92;2.75;;;-1.70;99.90;;;;;;4941904;28;20401;-77
2021/04/27 03:38:31;;;;;;;2.53;2.28;;;-1.70;99.90;;;;;;4997748;28;20457;-77
2021/04/27 03:40:56;;;;;;;5.32;2.75;;;-1.70;99.90;;;;;;5015385;28;20434;-77
2021/04/27 03:43:25;;;;;;;2.70;2.47;;;-1.70;99.90;;;;;;4994308;28;20404;-77
2021/04/27 03:45:51;;;;;;;3.75;2.40;;;-1.60;99.90;;;;;;4993015;28;20409;-77
2021/04/27 03:48:18;;;;;;;2.97;2.67;;;-1.80;99.90;;;;;;5004072;28;20411;-77
2021/04/27 03:50:57;;;;;;;2.22;2.10;;;-1.80;99.90;;;;;;4986472;28;20419;-77
2021/04/27 03:53:43;;;;;;;2.90;2.70;;;-1.80;99.90;;;;;;5002152;28;20421;-77
2021/04/27 03:56:15;;;;;;;4.60;2.83;;;-1.80;99.90;;;;;;4986272;28;20451;-77
2021/04/27 03:58:41;;;;;;;7.43;4.23;;;-1.90;99.90;;;;;;4991021;28;20451;-78
2021/04/27 04:01:07;;;;;;;7.30;3.10;;;-1.90;99.90;;;;;;4988250;28;20498;-77
2021/04/27 04:03:33;;;;;;;2.90;2.70;;;-1.90;99.90;;;;;;4994374;28;20426;-77
2021/04/27 04:05:58;;;;;;;3.10;2.80;;;-1.90;99.90;;;;;;4998360;28;20498;-76
2021/04/27 04:08:44;;;;;;;3.58;2.97;;;-1.90;99.90;;;;;;4996428;28;20472;-77
2021/04/27 04:11:11;;;;;;;2.50;2.30;;;-1.90;99.90;;;;;;4974356;28;20453;-77
2021/04/27 04:13:37;;;;;;;5.80;2.88;;;-1.90;99.90;;;;;;4975415;28;20405;-77
2021/04/27 04:16:03;;;;;;;4.55;2.83;;;-1.90;99.90;;;;;;4993180;28;20394;-77
2021/04/27 04:18:29;;;;;;;3.88;2.17;;;-1.90;99.90;;;;;;5000756;28;20500;-77
2021/04/27 04:20:55;;;;;;;3.00;2.58;;;-1.90;99.90;;;;;;4986242;28;20413;-77
2021/04/27 04:23:35;;;;;;;4.40;2.40;;;-1.80;99.90;;;;;;4996660;28;20404;-77
2021/04/27 04:26:01;;;;;;;3.95;2.90;;;-1.70;99.90;;;;;;4968163;28;20395;-77
2021/04/27 04:28:26;;;;;;;3.70;3.00;;;-1.60;99.90;;;;;;4992466;28;20433;-77
2021/04/27 04:30:52;;;;;;;3.77;3.10;;;-1.60;99.90;;;;;;5000783;28;20408;-77
2021/04/27 04:33:36;;;;;;;3.88;3.13;;;-1.50;99.90;;;;;;4993979;28;20411;-77
2021/04/27 04:36:21;;;;;;;4.53;3.30;;;-1.50;99.90;;;;;;5011591;28;20396;-78
2021/04/27 04:39:05;;;;;;;3.53;3.10;;;-1.50;99.90;;;;;;5001218;28;21078;-77
2021/04/27 04:41:49;;;;;;;3.00;2.70;;;-1.40;99.90;;;;;;4995832;28;20406;-77
2021/04/27 04:44:33;;;;;;;4.18;3.08;;;-1.30;99.90;;;;;;5005020;28;20429;-78
2021/04/27 04:47:18;;;;;;;3.90;2.80;;;-1.10;99.90;;;;;;4978083;28;20429;-77
2021/04/27 04:50:03;;;;;;;2.90;2.60;;;-1.10;99.90;;;;;;5007128;28;20407;-77
2021/04/27 04:52:48;;;;;;;4.60;2.90;;;-1.00;99.90;;;;;;4993710;28;20410;-80
2021/04/27 04:55:14;;;;;;;3.53;3.07;;;-0.90;99.90;;;;;;4998633;28;20402;-78
2021/04/27 04:58:10;;;;;;;3.25;2.60;;;-0.80;99.90;;;;;;4995703;28;20774;-78
2021/04/27 05:00:52;;;;;;;3.42;3.13;;;-0.50;99.90;;;;;;5016900;28;20411;-78
2021/04/27 05:03:40;;;;;;;3.25;2.90;;;-0.50;99.90;;;;;;5000336;28;20397;-79
2021/04/27 05:06:25;;;;;;;3.20;2.90;;;-0.30;99.90;;;;;;4995353;28;20405;-79
2021/04/27 05:09:12;;;;;;;4.35;3.20;;;-0.20;99.90;;;;;;5004670;28;20397;-80
2021/04/27 05:11:54;;;;;;;3.72;2.80;;;0.00;99.90;;;;;;5019717;28;20770;-81
2021/04/27 05:14:33;;;;;;;3.45;2.80;;;0.10;99.90;;;;;;5031249;28;20442;-81
2021/04/27 05:17:01;;;;;;;3.25;2.95;;;0.20;99.90;;;;;;5002026;28;20449;-80
2021/04/27 05:19:40;;;;;;;3.30;2.83;;;0.30;99.90;;;;;;4988539;28;20414;-80
2021/04/27 05:22:08;;;;;;;3.30;2.90;;;0.50;99.90;;;;;;5010747;28;20429;-80
2021/04/27 05:24:37;;;;;;;3.88;2.92;;;0.60;99.90;;;;;;5018949;28;20467;-80
2021/04/27 05:27:24;;;;;;;4.23;3.27;;;0.70;99.90;;;;;;4995754;28;20406;-81
2021/04/27 05:29:50;;;;;;;3.20;2.90;;;0.70;99.90;;;;;;5004396;28;20393;-80
2021/04/27 05:32:17;;;;;;;3.10;2.80;;;0.80;99.90;;;;;;5018160;28;20405;-79
2021/04/27 05:34:43;;;;;;;2.83;2.42;;;0.90;99.90;;;;;;5014537;28;20409;-80
2021/04/27 05:37:30;;;;;;;4.25;3.10;;;1.00;99.90;;;;;;5006400;28;20411;-80
2021/04/27 05:39:57;;;;;;;6.88;3.00;;;1.20;99.90;;;;;;5021278;28;20398;-80
2021/04/27 05:42:26;;;;;;;3.50;3.10;;;1.30;99.90;;;;;;5024578;28;20468;-79
2021/04/27 05:44:51;;;;;;;3.30;3.10;;;1.40;99.90;;;;;;5011361;28;20784;-80
2021/04/27 05:47:17;;;;;;;4.25;3.33;;;1.60;99.90;;;;;;5018880;28;20457;-80
2021/04/27 05:49:43;;;;;;;7.33;3.63;;;1.80;99.90;;;;;;5020427;28;20389;-80
2021/04/27 05:52:10;;;;;;;4.20;3.35;;;1.80;99.90;;;;;;4996798;28;20462;-80
2021/04/27 05:54:39;;;;;;;4.47;3.10;;;2.00;99.90;;;;;;5029760;28;20391;-80
2021/04/27 05:57:05;;;;;;;3.30;3.00;;;2.20;99.90;;;;;;5020608;28;20964;-80
2021/04/27 05:59:30;;;;;;;5.07;3.75;;;2.10;99.90;;;;;;4995313;28;20471;-81
2021/04/27 06:02:33;;;;;;;5.27;3.47;;;2.50;99.90;;;;;;5034049;28;20493;-78
2021/04/27 06:05:02;;;;;;;3.67;3.07;;;2.60;99.90;;;;;;5008577;28;20479;-79
2021/04/27 06:07:49;;;;;;;3.85;3.33;;;2.70;99.90;;;;;;5006913;28;20406;-80
2021/04/27 06:10:18;;;;;;;5.88;3.65;;;3.00;99.90;;;;;;5025748;28;20413;-80
2021/04/27 06:12:51;;;;;;;4.70;3.40;;;3.20;99.90;;;;;;4986226;28;20434;-81
2021/04/27 06:15:17;;;;;;;3.33;3.00;;;3.40;99.90;;;;;;4982845;28;20451;-80
2021/04/27 06:18:21;;;;;;;6.25;3.53;;;3.50;99.90;;;;;;5008736;28;20460;-81
2021/04/27 06:20:53;;;;;;;5.32;3.35;;;3.70;99.90;;;;;;5049344;28;20371;-81
2021/04/27 06:23:18;;;;;;;4.70;3.30;;;3.80;99.90;;;;;;5046354;28;20889;-81
2021/04/27 06:25:45;;;;;;;3.53;3.20;;;4.00;99.90;;;;;;5026123;28;20371;-80
2021/04/27 06:28:13;;;;;;;4.40;3.50;;;4.20;99.90;;;;;;5020899;28;20414;-80
2021/04/27 06:30:47;;;;;;;6.03;3.77;;;4.40;99.90;;;;;;5033242;28;20407;-81
2021/04/27 06:33:28;;;;;;;4.85;3.60;;;4.50;99.90;;;;;;5002280;28;20510;-79
2021/04/27 06:36:28;;;;;;;7.00;3.80;;;4.80;99.90;;;;;;5021521;28;20397;-81
2021/04/27 06:39:10;;;;;;;4.23;3.40;;;5.00;99.90;;;;;;5007627;28;20385;-80
2021/04/27 06:41:39;;;;;;;3.85;3.25;;;5.20;99.90;;;;;;5008939;28;20395;-80
2021/04/27 06:44:05;;;;;;;3.78;3.40;;;5.30;99.90;;;;;;5010486;28;20401;-81
2021/04/27 06:46:36;;;;;;;4.35;2.53;;;5.40;99.90;;;;;;5001025;28;20401;-79
2021/04/27 06:49:32;;;;;;;3.90;3.20;;;5.60;99.90;;;;;;4979900;28;20485;-80
2021/04/27 06:52:51;;;;;;;4.10;3.53;;;5.80;99.90;;;;;;5007558;28;20436;-80
2021/04/27 06:55:27;;;;;;;3.92;2.80;;;6.20;99.90;;;;;;5033569;28;20406;-81
2021/04/27 07:02:22;;;;;;;4.97;3.30;;;6.60;99.90;;;;;;5009719;28;20409;-80
2021/04/27 07:05:35;;;;;;;3.22;2.78;;;6.90;99.90;;;;;;4978301;28;20411;-80
2021/04/27 07:08:16;;;;;;;4.00;2.95;;;7.00;99.90;;;;;;5014487;28;20391;-78
2021/04/27 07:11:39;;;;;;;3.43;3.07;;;7.20;99.90;;;;;;5035570;28;20408;-80
2021/04/27 07:14:49;;;;;;;4.10;3.40;;;7.50;99.90;;;;;;5033189;28;20568;-81
2021/04/27 07:17:33;;;;;;;8.30;3.17;;;7.70;99.90;;;;;;4993252;28;20410;-81
2021/04/27 07:20:31;;;;;;;4.77;3.33;;;7.90;99.90;;;;;;5030116;28;20447;-80
2021/04/27 07:23:43;;;;;;;5.30;3.47;;;8.20;99.90;;;;;;4963222;28;20417;-80
2021/04/27 07:27:06;;;;;;;4.80;3.00;;;8.10;99.90;;;;;;5033389;28;20383;-80
2021/04/27 07:34:22;;;;;;;3.00;2.70;;;8.70;99.90;;;;;;4997372;28;20443;-79
2021/04/27 07:37:52;;;;;;;6.53;3.30;;;8.80;99.90;;;;;;5028009;28;20478;-80
2021/04/27 07:45:09;;;;;;;5.63;2.90;;;9.60;99.90;;;;;;4990436;28;20422;-80
2021/04/27 07:48:21;;;;;;;4.10;3.38;;;9.90;99.90;;;;;;4975851;28;20402;-80
2021/04/27 07:51:58;;;;;;;3.13;2.75;;;9.70;99.90;;;;;;4950826;28;20424;-80
2021/04/27 07:54:49;;;;;;;3.80;2.20;;;9.90;99.90;;;;;;4964082;28;20410;-79
2021/04/27 07:57:21;;;;;;;2.53;2.28;;;9.80;97.80;;;;;;4952617;28;20415;-80
2021/04/27 08:00:52;;;;;;;2.50;2.20;;;10.00;99.20;;;;;;4985566;28;20405;-81
2021/04/27 08:04:06;;;;;;;4.05;2.60;;;10.50;99.80;;;;;;4985701;28;20404;-81
2021/04/27 08:11:02;;;;;;;2.78;2.20;;;11.00;90.70;;;;;;5003111;28;20483;-81
2021/04/27 08:14:08;;;;;;;2.15;1.85;;;11.00;90.80;;;;;;4975442;28;20447;-80
2021/04/27 08:17:02;;;;;;;2.42;1.63;;;10.90;90.80;;;;;;4978234;28;20394;-81
2021/04/27 08:21:03;;;;;;;2.03;1.80;;;10.70;84.50;;;;;;4963097;28;20407;-80
2021/04/27 08:25:18;;;;;;;1.90;1.70;;;10.80;83.80;;;;;;5032009;28;20423;-82
2021/04/27 08:29:16;;;;;;;2.50;2.00;;;11.10;82.60;;;;;;5001151;28;20488;-79
2021/04/27 08:32:33;;;;;;;2.10;1.88;;;11.00;81.60;;;;;;5002103;28;20442;-81
2021/04/27 08:35:55;;;;;;;1.60;1.50;;;10.70;81.00;;;;;;5023093;28;20427;-81
2021/04/27 08:39:49;;;;;;;2.10;1.77;;;11.10;81.30;;;;;;5047392;28;20390;-81
2021/04/27 08:43:35;;;;;;;2.03;1.90;;;11.10;80.50;;;;;;5001449;28;20435;-81
2021/04/27 08:51:04;;;;;;;2.03;1.83;;;10.70;74.30;;;;;;5045226;28;20435;-79
2021/04/27 08:58:33;;;;;;;1.42;1.33;;;11.00;74.30;;;;;;4987996;28;20428;-81
2021/04/27 09:02:45;;;;;;;2.28;1.70;;;11.00;73.90;;;;;;5044385;28;20425;-85
2021/04/27 09:09:12;;;;;;;1.38;1.27;;;11.20;67.20;;;;;;4965651;28;20466;-85
2021/04/27 09:12:28;;;;;;;1.57;1.27;;;11.20;66.80;;;;;;4934287;28;20503;-81
2021/04/27 09:15:48;;;;;;;1.50;1.40;;;10.90;66.30;;;;;;4931588;28;20424;-80
2021/04/27 09:19:39;;;;;;;1.95;1.77;;;11.10;66.00;;;;;;5317710;23;20455;-81
2021/04/27 09:22:41;;;;;;;1.77;1.65;;;11.30;64.70;;;;;;4978292;28;20427;-80
2021/04/27 09:25:41;;;;;;;2.50;1.88;;;11.60;67.30;;;;;;4950220;28;20433;-80
2021/04/27 09:28:35;;;;;;;1.92;1.70;;;11.60;64.70;;;;;;4979025;28;20790;-80
2021/04/27 09:31:25;;;;;;;3.40;2.38;;;11.80;66.00;;;;;;4933199;28;20437;-80
2021/04/27 09:34:36;;;;;;;3.40;2.30;;;11.90;64.40;;;;;;4972373;28;20853;-81
2021/04/27 09:37:31;;;;;;;2.30;2.10;;;11.90;63.90;;;;;;4949267;28;20445;-80
2021/04/27 09:40:01;;;;;;;2.60;2.00;;;11.80;66.10;;;;;;4953547;28;20426;-81
2021/04/27 09:42:26;;;;;;;2.30;2.10;;;12.00;66.80;;;;;;4914666;28;20931;-81
2021/04/27 09:45:01;;;;;;;4.27;2.50;;;12.70;66.00;;;;;;4959667;28;20415;-82
2021/04/27 09:47:31;;;;;;;2.20;2.00;;;12.60;63.20;;;;;;4937491;28;20404;-81
2021/04/27 09:50:08;;;;;;;2.83;2.40;;;12.30;59.10;;;;;;4952503;28;20674;-81
2021/04/27 09:52:50;;;;;;;2.78;1.92;;;12.00;61.20;;;;;;4936305;28;20455;-82
2021/04/27 09:55:21;;;;;;;1.90;1.80;;;12.20;60.60;;;;;;4964944;28;20394;-81
2021/04/27 09:57:52;;;;;;;2.13;1.90;;;12.50;59.20;;;;;;4954810;28;20409;-82
2021/04/27 10:00:46;;;;;;;2.33;2.13;;;12.70;61.50;;;;;;4942721;28;20911;-81
2021/04/27 10:03:12;;;;;;;4.28;2.28;;;12.80;59.40;;;;;;4972887;28;20761;-81
2021/04/27 10:05:45;;;;;;;1.88;1.75;;;13.20;60.60;;;;;;4930126;28;20908;-81
2021/04/27 10:08:12;;;;;;;2.10;1.90;;;13.70;61.20;;;;;;4940952;28;20402;-81
2021/04/27 10:10:38;;;;;;;2.50;1.97;;;14.20;59.10;;;;;;4941353;28;20422;-80
2021/04/27 10:13:05;;;;;;;2.22;1.95;;;14.50;57.90;;;;;;4937742;28;20407;-81
2021/04/27 10:15:32;;;;;;;2.50;2.00;;;14.40;57.50;;;;;;4929305;28;20493;-80
2021/04/27 10:18:06;;;;;;;2.50;2.00;;;14.60;55.60;;;;;;4958113;28;20987;-80
2021/04/27 10:20:32;;;;;;;3.05;2.17;;;14.70;54.20;;;;;;4969704;28;20407;-81
2021/04/27 10:22:58;;;;;;;2.00;1.83;;;14.70;53.50;;;;;;4972463;28;20920;-80
2021/04/27 10:25:28;;;;;;;2.10;1.90;;;14.90;54.00;;;;;;4926175;28;20417;-80
2021/04/27 10:27:55;;;;;;;2.35;1.50;;;15.30;54.50;;;;;;4992953;28;20403;-81
2021/04/27 10:30:22;;;;;;;1.45;1.30;;;15.60;51.70;;;;;;4966021;28;20882;-80
2021/04/27 10:33:06;;;;;;;3.67;1.60;;;15.30;47.80;;;;;;4986872;28;20468;-79
2021/04/27 10:36:01;;;;;;;2.23;1.70;;;15.40;48.90;;;;;;4985080;28;20426;-80
2021/04/27 10:38:40;;;;;;;1.73;1.63;;;15.70;49.10;;;;;;4946200;28;20422;-80
2021/04/27 10:41:11;;;;;;;2.22;1.77;;;15.80;48.50;;;;;;4934352;28;20421;-80
2021/04/27 10:43:38;;;;;;;2.50;1.97;;;16.00;48.80;;;;;;4939042;28;20980;-80
2021/04/27 10:46:09;;;;;;;9.05;2.20;;;16.60;48.50;;;;;;4926101;28;20414;-80
2021/04/27 10:48:43;;;;;;;1.60;1.50;;;16.70;47.80;;;;;;4926832;28;20481;-81
2021/04/27 10:51:20;;;;;;;1.80;1.70;;;16.90;44.80;;;;;;4945188;28;20422;-80
2021/04/27 10:54:18;;;;;;;4.18;1.92;;;17.30;48.70;;;;;;4976369;28;20391;-80
2021/04/27 10:56:52;;;;;;;1.88;1.40;;;17.30;45.10;;;;;;4977894;28;20404;-80
2021/04/27 10:59:22;;;;;;;2.42;1.60;;;17.50;46.30;;;;;;4956517;28;20398;-80
2021/04/27 11:02:06;;;;;;;1.65;1.55;;;17.70;45.90;;;;;;4921731;28;20411;-79
2021/04/27 11:04:33;;;;;;;2.80;1.80;;;18.10;44.90;;;;;;4939875;28;20433;-80
2021/04/27 11:07:20;;;;;;;1.60;1.50;;;18.50;43.90;;;;;;4926003;28;20771;-81
2021/04/27 11:09:57;;;;;;;2.05;1.70;;;18.80;41.70;;;;;;4970958;28;20462;-80
2021/04/27 11:12:36;;;;;;;1.38;1.27;;;18.60;43.30;;;;;;4966276;28;20414;-80
2021/04/27 11:15:09;;;;;;;1.60;1.50;;;18.30;42.10;;;;;;4950119;28;20399;-80
2021/04/27 11:17:36;;;;;;;1.67;1.57;;;18.40;40.60;;;;;;4940161;28;20515;-80
2021/04/27 11:20:04;;;;;;;1.58;1.30;;;18.30;40.60;;;;;;4934521;28;20412;-80
2021/04/27 11:22:32;;;;;;;1.42;1.33;;;18.30;39.60;;;;;;4930967;28;20457;-80
2021/04/27 11:25:08;;;;;;;1.33;1.30;;;18.30;40.00;;;;;;4966866;28;20402;-81
2021/04/27 11:27:47;;;;;;;1.75;1.58;;;18.90;40.60;;;;;;4987873;28;20425;-81
2021/04/27 11:30:14;;;;;;;1.40;1.30;;;19.30;40.30;;;;;;4976591;28;20430;-79
2021/04/27 11:32:45;;;;;;;2.03;1.53;;;18.90;37.90;;;;;;4964787;28;20390;-79
2021/04/27 11:35:11;;;;;;;1.88;1.48;;;18.80;37.40;;;;;;4935992;28;20391;-80
2021/04/27 11:37:53;;;;;;;2.50;1.70;;;18.70;40.30;;;;;;4970809;28;23801;-80
2021/04/27 11:40:25;;;;;;;2.63;1.70;;;19.20;40.80;;;;;;4952610;28;20417;-80
2021/04/27 11:43:04;;;;;;;1.40;1.30;;;19.70;39.50;;;;;;4984900;28;20864;-81
2021/04/27 11:45:43;;;;;;;2.75;1.60;;;20.00;38.50;;;;;;4970151;28;20394;-81
2021/04/27 11:48:15;;;;;;;1.50;1.40;;;20.10;39.30;;;;;;4990364;28;20410;-81
2021/04/27 11:51:06;;;;;;;1.70;1.60;;;20.50;38.50;;;;;;4974977;28;20418;-81
2021/04/27 11:53:41;;;;;;;1.63;1.45;;;20.00;37.40;;;;;;4993746;28;20461;-82
2021/04/27 12:09:11;;;;;;;1.77;1.50;;;19.40;36.90;;;;;;4973610;28;20461;-85
2021/04/27 12:11:37;;;;;;;1.75;1.65;;;20.00;38.30;;;;;;4966765;28;20441;-92
2021/04/27 12:14:08;;;;;;;1.85;1.60;;;20.70;37.50;;;;;;4998642;28;20382;-91
2021/04/27 12:16:41;;;;;;;1.90;1.50;;;21.20;35.90;;;;;;4985169;28;20424;-82
2021/04/27 12:19:07;;;;;;;1.77;1.50;;;21.00;34.60;;;;;;5011549;28;20385;-91
2021/04/27 12:21:39;;;;;;;1.60;1.42;;;21.10;36.80;;;;;;5030318;28;20920;-90
2021/04/27 12:24:23;;;;;;;1.33;1.23;;;21.20;36.10;;;;;;5000992;28;20432;-86
2021/04/27 12:27:02;;;;;;;1.53;1.43;;;21.20;34.90;;;;;;5034055;28;20408;-91
2021/04/27 12:29:34;;;;;;;1.52;1.42;;;21.20;34.80;;;;;;5000732;28;20388;-89
2021/04/27 12:32:13;;;;;;;1.75;1.33;;;21.50;34.80;;;;;;5016358;28;20488;-90
2021/04/27 12:35:18;;;;;;;1.88;1.67;;;21.40;33.90;;;;;;5019264;28;20393;-92
2021/04/27 12:37:44;;;;;;;1.58;1.40;;;21.50;34.20;;;;;;4977910;28;20395;-91
2021/04/27 12:40:17;;;;;;;1.50;1.40;;;21.40;33.30;;;;;;4978945;28;20405;-92
2021/04/27 12:42:50;;;;;;;1.50;1.40;;;21.50;32.70;;;;;;4997087;28;20441;-91
2021/04/27 12:45:16;;;;;;;1.30;1.20;;;21.60;33.80;;;;;;4991641;28;20398;-87
2021/04/27 12:47:42;;;;;;;2.42;1.35;;;22.10;35.10;;;;;;5009728;28;20405;-88
2021/04/27 12:50:20;;;;;;;1.35;1.25;;;22.40;33.80;;;;;;5012236;28;20405;-87
2021/04/27 12:53:03;;;;;;;1.58;1.48;;;22.30;33.00;;;;;;4992315;28;20439;-83
2021/04/27 12:55:34;;;;;;;1.45;1.35;;;21.80;31.90;;;;;;5019046;28;20480;-88
2021/04/27 12:58:13;;;;;;;3.33;1.33;;;21.70;33.50;;;;;;5003147;28;20388;-85
2021/04/27 13:00:52;;;;;;;1.95;1.58;;;21.80;33.30;;;;;;5016230;28;20388;-83
2021/04/27 13:03:20;;;;;;;1.45;1.20;;;22.10;32.20;;;;;;5017183;28;20455;-91
2021/04/27 13:05:45;;;;;;;1.45;1.35;;;22.40;33.10;;;;;;5009329;28;20381;-83
2021/04/27 13:08:13;;;;;;;1.23;1.20;;;22.20;31.90;;;;;;4967859;28;20467;-82
2021/04/27 13:10:43;;;;;;;2.10;1.35;;;22.00;32.20;;;;;;4990843;28;20414;-82
2021/04/27 13:13:15;;;;;;;1.33;1.23;;;21.90;32.90;;;;;;5000104;28;20416;-86
2021/04/27 13:15:42;;;;;;;4.90;1.20;;;21.80;33.50;;;;;;4999502;28;20397;-84
2021/04/27 13:18:08;;;;;;;1.40;1.30;;;21.60;33.20;;;;;;4963854;28;20404;-82
2021/04/27 13:20:39;;;;;;;1.50;1.40;;;21.50;32.70;;;;;;4997197;28;20385;-82
2021/04/27 13:23:08;;;;;;;1.90;1.27;;;21.90;32.80;;;;;;4996440;28;20389;-85
2021/04/27 13:25:43;;;;;;;1.38;1.27;;;22.60;33.50;;;;;;5012509;28;20468;-83
2021/04/27 13:28:16;;;;;;;1.55;1.40;;;23.20;33.20;;;;;;4974490;28;20405;-83
2021/04/27 13:30:52;;;;;;;1.33;1.30;;;23.60;32.90;;;;;;4996057;28;20447;-81
2021/04/27 13:33:22;;;;;;;2.45;1.40;;;23.30;30.20;;;;;;4974892;28;20694;-80
2021/04/27 13:35:51;;;;;;;1.40;1.30;;;23.00;31.30;;;;;;4994153;28;20398;-79
2021/04/27 13:38:18;;;;;;;1.55;1.38;;;23.00;31.20;;;;;;5008479;28;20472;-81
2021/04/27 13:40:45;;;;;;;3.40;1.35;;;22.70;32.10;;;;;;4980166;28;20494;-79
2021/04/27 13:43:21;;;;;;;2.50;1.30;;;22.90;32.10;;;;;;4999170;28;20894;-84
2021/04/27 13:45:47;;;;;;;1.40;1.30;;;23.10;31.00;;;;;;4989417;28;20403;-81
2021/04/27 13:48:14;;;;;;;1.42;1.33;;;23.10;31.00;;;;;;4965375;28;20447;-82
2021/04/27 13:50:44;;;;;;;2.45;1.33;;;22.70;30.50;;;;;;4999263;28;20416;-87
2021/04/27 13:53:14;;;;;;;2.08;1.30;;;22.70;32.20;;;;;;5011395;28;20397;-90
2021/04/27 13:55:40;;;;;;;2.05;1.30;;;23.40;33.20;;;;;;4989337;28;20485;-83
2021/04/27 13:58:10;;;;;;;1.55;1.38;;;23.10;29.90;;;;;;5004504;28;20456;-87
2021/04/27 14:00:36;;;;;;;3.30;1.27;;;23.00;30.50;;;;;;4970155;28;20891;-81
2021/04/27 14:03:01;;;;;;;1.20;1.10;;;22.60;30.10;;;;;;4997487;28;20448;-84
2021/04/27 14:05:27;;;;;;;1.27;1.17;;;23.10;30.80;;;;;;4980333;28;20397;-82
2021/04/27 14:07:53;;;;;;;1.40;1.30;;;23.60;30.30;;;;;;4965754;28;20397;-84
2021/04/27 14:10:20;;;;;;;1.30;1.30;;;23.40;31.30;;;;;;4977838;28;20411;-81
2021/04/27 14:12:46;;;;;;;1.20;1.20;;;23.10;29.10;;;;;;4973233;28;20408;-82
2021/04/27 14:15:13;;;;;;;2.70;1.50;;;22.70;30.30;;;;;;4944867;28;20396;-82
2021/04/27 14:17:39;;;;;;;1.45;1.35;;;22.80;31.30;;;;;;4996170;28;20424;-87
2021/04/27 14:20:06;;;;;;;1.60;1.50;;;22.90;30.00;;;;;;4945258;28;20383;-86
2021/04/27 14:22:32;;;;;;;1.35;1.30;;;23.20;29.90;;;;;;4998997;28;20389;-83
2021/04/27 14:24:58;;;;;;;1.27;1.20;;;23.10;30.80;;;;;;4970945;28;20393;-84